createdAt,value
2019-03-30T00:05:29.388Z,64.75
2019-03-30T00:11:36.146Z,64.78
2019-03-30T00:17:42.758Z,64.64
2019-03-30T00:23:49.309Z,64.47
2019-03-30T00:29:55.865Z,64.44
2019-03-30T00:36:02.419Z,64.37
2019-03-30T00:42:09.783Z,64.59
2019-03-30T00:48:16.379Z,65.00
2019-03-30T00:54:22.896Z,65.13
2019-03-30T01:00:29.545Z,65.07
2019-03-30T01:06:36.307Z,65.37
2019-03-30T01:12:43.423Z,65.64
2019-03-30T01:18:50.341Z,65.95
2019-03-30T01:24:57.243Z,66.07
2019-03-30T01:31:04.586Z,66.17
2019-03-30T01:37:11.444Z,66.15
2019-03-30T01:43:18.175Z,66.37
2019-03-30T01:49:24.960Z,66.52
2019-03-30T01:55:31.749Z,66.49
2019-03-30T02:01:39.215Z,66.37
2019-03-30T02:07:45.815Z,66.22
2019-03-30T02:13:52.425Z,66.08
2019-03-30T02:19:58.972Z,66.15
2019-03-30T02:26:06.000Z,66.34
2019-03-30T02:32:12.549Z,66.54
2019-03-30T02:38:19.344Z,67.02
2019-03-30T02:44:25.978Z,67.33
2019-03-30T02:50:48.128Z,66.95
2019-03-30T02:56:40.859Z,66.88
2019-03-30T03:02:47.957Z,66.98
2019-03-30T03:08:54.513Z,67.05
2019-03-30T03:15:01.136Z,66.81
2019-03-30T03:21:08.735Z,66.67
2019-03-30T03:27:15.756Z,66.40
2019-03-30T03:33:22.301Z,66.40
2019-03-30T03:39:28.894Z,66.54
2019-03-30T03:45:35.655Z,66.60
2019-03-30T03:51:42.390Z,66.80
2019-03-30T03:57:49.596Z,66.45
2019-03-30T04:03:57.796Z,66.53
2019-03-30T04:10:06.799Z,66.44
2019-03-30T04:16:13.873Z,66.26
2019-03-30T04:22:20.688Z,66.24
2019-03-30T04:28:27.330Z,66.18
2019-03-30T04:34:33.871Z,66.12
2019-03-30T04:40:40.450Z,66.09
2019-03-30T04:46:47.123Z,66.14
2019-03-30T04:52:53.650Z,66.03
2019-03-30T04:59:00.277Z,66.04
2019-03-30T05:05:07.596Z,65.99
2019-03-30T05:11:14.133Z,65.94
2019-03-30T05:17:20.700Z,65.88
2019-03-30T05:23:27.434Z,65.94
2019-03-30T05:29:34.022Z,65.86
2019-03-30T05:35:40.729Z,65.74
2019-03-30T05:41:47.369Z,65.58
2019-03-30T05:47:53.964Z,65.25
2019-03-30T05:54:00.605Z,64.96
2019-03-30T06:00:09.430Z,64.84
2019-03-30T06:06:16.137Z,64.66
2019-03-30T06:12:22.680Z,64.54
2019-03-30T06:18:29.475Z,64.30
2019-03-30T06:24:36.095Z,64.00
2019-03-30T06:30:42.708Z,63.71
2019-03-30T06:36:49.449Z,63.56
2019-03-30T06:42:56.313Z,63.20
2019-03-30T06:49:02.883Z,62.79
2019-03-30T06:55:09.766Z,62.12
2019-03-30T07:01:16.397Z,61.66
2019-03-30T07:07:24.939Z,60.92
2019-03-30T07:13:34.320Z,59.01
2019-03-30T07:19:44.704Z,58.50
2019-03-30T07:25:51.419Z,57.62
2019-03-30T07:31:57.980Z,56.90
2019-03-30T07:38:04.562Z,55.69
2019-03-30T07:44:11.177Z,55.16
2019-03-30T07:50:17.836Z,54.23
2019-03-30T07:56:24.441Z,53.20
2019-03-30T08:02:31.086Z,53.25
2019-03-30T08:08:37.696Z,51.92
2019-03-30T08:14:45.253Z,51.84
2019-03-30T08:20:52.082Z,51.70
2019-03-30T08:26:58.600Z,50.89
2019-03-30T08:33:05.188Z,50.79
2019-03-30T08:39:11.867Z,50.45
2019-03-30T08:45:18.585Z,50.52
2019-03-30T08:51:25.295Z,50.25
2019-03-30T08:57:31.971Z,49.11
2019-03-30T09:03:38.730Z,48.84
2019-03-30T09:09:45.393Z,49.16
2019-03-30T09:15:52.179Z,48.04
2019-03-30T09:21:58.715Z,47.79
2019-03-30T09:28:05.231Z,47.40
2019-03-30T09:34:11.911Z,46.53
2019-03-30T09:40:18.523Z,45.28
2019-03-30T09:46:25.056Z,45.71
2019-03-30T09:52:31.588Z,44.55
2019-03-30T09:58:38.139Z,44.81
2019-03-30T10:04:44.774Z,44.12
2019-03-30T10:10:51.362Z,44.25
2019-03-30T10:16:58.017Z,44.83
2019-03-30T10:23:04.706Z,44.08
2019-03-30T10:29:11.247Z,43.40
2019-03-30T10:35:17.824Z,43.23
2019-03-30T10:41:24.516Z,42.99
2019-03-30T10:47:30.990Z,43.03
2019-03-30T10:53:37.557Z,41.85
2019-03-30T10:59:44.210Z,42.07
2019-03-30T11:05:50.920Z,41.40
2019-03-30T11:11:57.690Z,39.59
2019-03-30T11:18:04.476Z,39.64
2019-03-30T11:24:11.067Z,39.68
2019-03-30T11:30:17.599Z,38.68
2019-03-30T11:36:24.311Z,38.08
2019-03-30T11:42:30.870Z,37.28
2019-03-30T11:48:37.907Z,36.91
2019-03-30T11:54:44.549Z,35.99
2019-03-30T12:00:51.385Z,35.06
2019-03-30T12:06:58.096Z,34.59
2019-03-30T12:13:04.646Z,34.36
2019-03-30T12:19:11.309Z,33.96
2019-03-30T12:25:17.810Z,33.28
2019-03-30T12:31:24.365Z,33.37
2019-03-30T12:37:30.956Z,33.25
2019-03-30T12:43:39.169Z,32.56
2019-03-30T12:49:46.146Z,32.00
2019-03-30T12:55:53.227Z,32.29
2019-03-30T13:02:00.329Z,32.38
2019-03-30T13:08:08.769Z,30.94
2019-03-30T13:14:15.461Z,31.58
2019-03-30T13:20:22.333Z,31.16
2019-03-30T13:26:29.393Z,31.21
2019-03-30T13:32:36.987Z,31.22
2019-03-30T13:38:43.630Z,31.25
2019-03-30T13:44:50.341Z,31.06
2019-03-30T13:50:57.006Z,30.62
2019-03-30T13:57:03.486Z,30.88
2019-03-30T14:03:10.059Z,30.86
2019-03-30T14:09:16.592Z,30.54
2019-03-30T14:15:23.580Z,30.75
2019-03-30T14:21:30.453Z,30.95
2019-03-30T14:27:37.145Z,31.46
2019-03-30T14:33:43.974Z,31.71
2019-03-30T14:39:53.100Z,31.23
2019-03-30T14:46:02.416Z,30.87
2019-03-30T14:52:09.219Z,31.33
2019-03-30T14:58:15.828Z,31.12
2019-03-30T15:04:22.620Z,30.27
2019-03-30T15:10:29.195Z,29.91
2019-03-30T15:16:35.895Z,29.80
2019-03-30T15:22:42.614Z,29.46
2019-03-30T15:28:49.522Z,28.70
2019-03-30T15:34:58.404Z,29.26
2019-03-30T15:41:04.721Z,29.27
2019-03-30T15:47:12.015Z,28.68
2019-03-30T15:53:18.539Z,28.06
2019-03-30T15:59:25.461Z,28.51
2019-03-30T16:05:32.529Z,29.20
2019-03-30T16:11:39.154Z,29.57
2019-03-30T16:17:45.728Z,30.14
2019-03-30T16:23:52.620Z,30.22
2019-03-30T16:29:59.185Z,30.75
2019-03-30T16:36:05.810Z,31.08
2019-03-30T16:42:12.403Z,31.26
2019-03-30T16:48:19.021Z,31.25
2019-03-30T16:54:25.699Z,31.85
2019-03-30T17:00:36.184Z,31.96
2019-03-30T17:06:42.864Z,32.35
2019-03-30T17:12:49.403Z,32.64
2019-03-30T17:18:56.023Z,32.82
2019-03-30T17:25:04.186Z,33.06
2019-03-30T17:31:10.869Z,33.41
2019-03-30T17:37:17.564Z,33.75
2019-03-30T17:43:24.182Z,34.06
2019-03-30T17:49:30.756Z,34.49
2019-03-30T17:55:37.311Z,34.94
2019-03-30T18:01:44.139Z,35.07
2019-03-30T18:07:50.777Z,35.52
2019-03-30T18:13:57.485Z,36.18
2019-03-30T18:20:04.340Z,36.77
2019-03-30T18:26:11.056Z,37.17
2019-03-30T18:32:18.524Z,37.82
2019-03-30T18:38:25.985Z,38.25
2019-03-30T18:44:33.093Z,38.87
2019-03-30T18:50:41.687Z,40.40
2019-03-30T18:56:51.642Z,41.21
2019-03-30T19:02:58.781Z,42.14
2019-03-30T19:09:08.737Z,43.25
2019-03-30T19:15:16.322Z,44.41
2019-03-30T19:21:24.106Z,45.77
2019-03-30T19:27:30.672Z,46.62
2019-03-30T19:33:37.391Z,47.69
2019-03-30T19:39:44.122Z,48.42
2019-03-30T19:45:50.825Z,50.05
2019-03-30T19:51:57.530Z,51.11
2019-03-30T19:58:04.222Z,51.62
2019-03-30T20:04:10.999Z,51.73
2019-03-30T20:10:17.745Z,52.56
2019-03-30T20:16:24.432Z,52.78
2019-03-30T20:22:31.046Z,52.54
2019-03-30T20:28:37.948Z,52.39
2019-03-30T20:34:44.634Z,52.72
2019-03-30T20:40:53.041Z,53.54
2019-03-30T20:47:01.971Z,53.09
2019-03-30T20:53:09.018Z,53.63
2019-03-30T20:59:15.886Z,54.00
2019-03-30T21:05:23.738Z,52.54
2019-03-30T21:11:30.435Z,52.28
2019-03-30T21:17:37.204Z,52.02
2019-03-30T21:23:43.804Z,52.02
2019-03-30T21:29:54.857Z,51.90
2019-03-30T21:35:59.157Z,52.70
2019-03-30T21:42:06.077Z,54.24
2019-03-30T21:48:12.869Z,55.89
2019-03-30T21:54:19.598Z,55.80
2019-03-30T22:00:54.270Z,55.70
2019-03-30T22:07:01.491Z,55.65
2019-03-30T22:13:08.864Z,55.30
2019-03-30T22:19:15.660Z,55.06
2019-03-30T22:25:22.308Z,55.17
2019-03-30T22:31:28.938Z,55.15
2019-03-30T22:37:35.673Z,55.50
2019-03-30T22:43:42.352Z,55.89
2019-03-30T22:49:49.110Z,55.90
2019-03-30T22:55:55.802Z,55.54
2019-03-30T23:02:02.548Z,55.82
2019-03-30T23:08:09.523Z,56.81
2019-03-30T23:14:16.357Z,56.92
2019-03-30T23:20:23.111Z,57.34
2019-03-30T23:26:29.789Z,57.91
2019-03-30T23:32:36.390Z,58.09
2019-03-30T23:38:42.985Z,58.37
2019-03-30T23:44:49.739Z,59.30
2019-03-30T23:50:56.279Z,59.44
2019-03-30T23:57:03.003Z,59.58
